createdAt,value
2018-04-18T00:06:01.000Z,48.1
2018-04-18T00:16:01.000Z,48.2
2018-04-18T00:26:01.000Z,47.7
2018-04-18T00:36:01.000Z,47.4
2018-04-18T00:46:01.000Z,47
2018-04-18T00:56:01.000Z,46.9
2018-04-18T01:06:02.000Z,47.6
2018-04-18T01:16:02.000Z,47.9
2018-04-18T01:26:02.000Z,48.5
2018-04-18T01:36:02.000Z,48.5
2018-04-18T01:46:02.000Z,48.4
2018-04-18T01:56:02.000Z,48.5
2018-04-18T02:06:02.000Z,48.5
2018-04-18T02:16:02.000Z,48.4
2018-04-18T02:26:02.000Z,48
2018-04-18T02:36:02.000Z,47.8
2018-04-18T02:46:02.000Z,48.1
2018-04-18T02:56:02.000Z,48.1
2018-04-18T03:06:02.000Z,48
2018-04-18T03:16:02.000Z,47.8
2018-04-18T03:26:02.000Z,47.9
2018-04-18T03:36:03.000Z,48
2018-04-18T03:46:02.000Z,47.9
2018-04-18T03:56:02.000Z,48
2018-04-18T04:06:02.000Z,48
2018-04-18T04:16:02.000Z,48.1
2018-04-18T04:26:02.000Z,48.2
2018-04-18T04:36:02.000Z,48.3
2018-04-18T04:46:03.000Z,48.2
2018-04-18T04:56:02.000Z,47.9
2018-04-18T05:06:02.000Z,48
2018-04-18T05:16:02.000Z,48.1
2018-04-18T05:26:02.000Z,47.9
2018-04-18T05:36:02.000Z,47.9
2018-04-18T05:46:02.000Z,47.8
2018-04-18T05:56:02.000Z,47.8
2018-04-18T06:06:02.000Z,48.1
2018-04-18T06:16:02.000Z,48.4
2018-04-18T06:26:02.000Z,49.3
2018-04-18T06:36:02.000Z,48.2
2018-04-18T06:46:02.000Z,48.3
2018-04-18T06:56:02.000Z,48.7
2018-04-18T07:06:02.000Z,48.8
2018-04-18T07:16:02.000Z,48.9
2018-04-18T07:26:02.000Z,49.1
2018-04-18T07:36:02.000Z,49.3
2018-04-18T07:46:02.000Z,49.6
2018-04-18T07:56:03.000Z,50
2018-04-18T08:06:03.000Z,50.6
2018-04-18T08:16:03.000Z,50.4
2018-04-18T08:26:03.000Z,50.4
2018-04-18T08:36:03.000Z,50.7
2018-04-18T08:46:03.000Z,51.1
2018-04-18T08:56:03.000Z,51.2
2018-04-18T09:06:03.000Z,51.4
2018-04-18T09:16:03.000Z,52.1
2018-04-18T09:26:03.000Z,52.1
2018-04-18T09:36:03.000Z,52.2
2018-04-18T09:46:04.000Z,52.1
2018-04-18T09:56:03.000Z,52.5
2018-04-18T10:06:03.000Z,52.7
2018-04-18T10:16:03.000Z,53.2
2018-04-18T10:26:03.000Z,53.3
2018-04-18T10:36:03.000Z,53.9
2018-04-18T10:46:03.000Z,54.2
2018-04-18T10:56:04.000Z,53.8
2018-04-18T11:06:03.000Z,52.9
2018-04-18T11:16:03.000Z,54.3
2018-04-18T11:26:03.000Z,55.1
2018-04-18T11:36:03.000Z,56
2018-04-18T11:46:03.000Z,56.2
2018-04-18T11:56:03.000Z,55.9
2018-04-18T12:06:03.000Z,54.6
2018-04-18T12:16:03.000Z,53.4
2018-04-18T12:26:03.000Z,53.3
2018-04-18T12:36:03.000Z,53.8
2018-04-18T12:46:03.000Z,54.5
2018-04-18T12:56:03.000Z,54.9
2018-04-18T13:06:03.000Z,55
2018-04-18T13:16:03.000Z,54.9
2018-04-18T13:26:03.000Z,54.4
2018-04-18T13:36:03.000Z,54.2
2018-04-18T13:46:03.000Z,54.1
2018-04-18T13:56:03.000Z,53.7
2018-04-18T14:06:04.000Z,53.4
2018-04-18T14:16:03.000Z,53.4
2018-04-18T14:26:03.000Z,53.5
2018-04-18T14:36:03.000Z,54.1
2018-04-18T14:46:03.000Z,54.7
2018-04-18T14:56:04.000Z,55
2018-04-18T15:06:04.000Z,52
2018-04-18T15:16:04.000Z,50.4
2018-04-18T15:26:04.000Z,47.9
2018-04-18T15:36:04.000Z,46.5
2018-04-18T15:46:04.000Z,47
2018-04-18T15:56:05.000Z,47.6
2018-04-18T16:06:04.000Z,45.3
2018-04-18T16:16:04.000Z,44.6
2018-04-18T16:26:04.000Z,43.3
2018-04-18T16:36:04.000Z,42.4
2018-04-18T16:46:04.000Z,44.7
2018-04-18T16:56:04.000Z,46.1
2018-04-18T17:06:04.000Z,47.1
2018-04-18T17:16:04.000Z,48.1
2018-04-18T17:26:04.000Z,48.5
2018-04-18T17:36:06.000Z,49.2
2018-04-18T17:46:04.000Z,49.6
2018-04-18T17:56:04.000Z,49.8
2018-04-18T18:06:04.000Z,50.1
2018-04-18T18:16:04.000Z,50.4
2018-04-18T18:26:04.000Z,50.6
2018-04-18T18:36:04.000Z,50.9
2018-04-18T18:46:04.000Z,51.2
2018-04-18T18:56:04.000Z,51.5
2018-04-18T19:06:04.000Z,51.9
2018-04-18T19:16:04.000Z,51.8
2018-04-18T19:26:04.000Z,51.7
2018-04-18T19:36:04.000Z,51.9
2018-04-18T19:46:04.000Z,52.2
2018-04-18T19:56:04.000Z,52.4
2018-04-18T20:06:04.000Z,52.3
2018-04-18T20:16:04.000Z,52.5
2018-04-18T20:26:04.000Z,52.5
2018-04-18T20:36:04.000Z,52.5
2018-04-18T20:46:04.000Z,52.4
2018-04-18T20:56:04.000Z,52.8
2018-04-18T21:06:04.000Z,50.9
2018-04-18T21:16:04.000Z,48.5
2018-04-18T21:26:04.000Z,48.2
2018-04-18T21:36:04.000Z,47.8
2018-04-18T21:46:05.000Z,47.9
2018-04-18T21:56:05.000Z,48.1
2018-04-18T22:06:05.000Z,47.9
2018-04-18T22:16:05.000Z,47.7
2018-04-18T22:26:05.000Z,48.1
2018-04-18T22:36:05.000Z,48.1
2018-04-18T22:46:05.000Z,48
2018-04-18T22:56:05.000Z,48.9
2018-04-18T23:06:05.000Z,48.3
2018-04-18T23:16:05.000Z,48.1
2018-04-18T23:26:05.000Z,48.1
2018-04-18T23:36:05.000Z,47.8
2018-04-18T23:46:05.000Z,47.8
2018-04-18T23:56:05.000Z,47.7
